sensor_id;sensor_type;location;lat;lon;timestamp;P1;durP1;ratioP1;P2;durP2;ratioP2
23720;SDS011;42950;52.134;5.578;2023-05-07T00:00:46;4.78;;;3.97;;
23720;SDS011;42950;52.134;5.578;2023-05-07T00:03:11;8.57;;;4.25;;
23720;SDS011;42950;52.134;5.578;2023-05-07T00:05:39;4.53;;;4.13;;
23720;SDS011;42950;52.134;5.578;2023-05-07T00:08:04;6.20;;;4.68;;
23720;SDS011;42950;52.134;5.578;2023-05-07T00:10:30;5.05;;;3.83;;
23720;SDS011;42950;52.134;5.578;2023-05-07T00:12:58;4.45;;;4.05;;
23720;SDS011;42950;52.134;5.578;2023-05-07T00:15:24;4.90;;;4.40;;
23720;SDS011;42950;52.134;5.578;2023-05-07T00:17:49;4.68;;;4.28;;
23720;SDS011;42950;52.134;5.578;2023-05-07T00:20:15;5.20;;;4.70;;
23720;SDS011;42950;52.134;5.578;2023-05-07T00:25:10;5.65;;;4.95;;
23720;SDS011;42950;52.134;5.578;2023-05-07T00:27:36;4.88;;;4.38;;
23720;SDS011;42950;52.134;5.578;2023-05-07T00:30:02;5.07;;;4.60;;
23720;SDS011;42950;52.134;5.578;2023-05-07T00:32:28;6.78;;;5.25;;
23720;SDS011;42950;52.134;5.578;2023-05-07T00:34:53;5.90;;;5.03;;
23720;SDS011;42950;52.134;5.578;2023-05-07T00:37:19;6.72;;;5.00;;
23720;SDS011;42950;52.134;5.578;2023-05-07T00:39:45;5.90;;;4.95;;
23720;SDS011;42950;52.134;5.578;2023-05-07T00:42:10;5.97;;;5.00;;
23720;SDS011;42950;52.134;5.578;2023-05-07T00:44:36;5.82;;;5.10;;
23720;SDS011;42950;52.134;5.578;2023-05-07T00:47:02;5.85;;;5.03;;
23720;SDS011;42950;52.134;5.578;2023-05-07T00:49:38;5.75;;;4.55;;
23720;SDS011;42950;52.134;5.578;2023-05-07T00:52:06;6.28;;;4.90;;
23720;SDS011;42950;52.134;5.578;2023-05-07T00:54:34;7.60;;;5.25;;
23720;SDS011;42950;52.134;5.578;2023-05-07T00:57:01;5.43;;;4.65;;
23720;SDS011;42950;52.134;5.578;2023-05-07T00:59:28;5.15;;;4.55;;
23720;SDS011;42950;52.134;5.578;2023-05-07T01:01:55;5.90;;;5.30;;
23720;SDS011;42950;52.134;5.578;2023-05-07T01:04:21;5.32;;;4.72;;
23720;SDS011;42950;52.134;5.578;2023-05-07T01:06:46;6.00;;;4.82;;
23720;SDS011;42950;52.134;5.578;2023-05-07T01:09:12;5.63;;;5.10;;
23720;SDS011;42950;52.134;5.578;2023-05-07T01:11:38;6.00;;;5.10;;
23720;SDS011;42950;52.134;5.578;2023-05-07T01:14:05;5.95;;;5.22;;
23720;SDS011;42950;52.134;5.578;2023-05-07T01:16:31;6.10;;;5.38;;
23720;SDS011;42950;52.134;5.578;2023-05-07T01:18:58;5.95;;;5.18;;
23720;SDS011;42950;52.134;5.578;2023-05-07T01:21:24;7.25;;;5.60;;
23720;SDS011;42950;52.134;5.578;2023-05-07T01:23:51;6.45;;;5.28;;
23720;SDS011;42950;52.134;5.578;2023-05-07T01:26:19;5.75;;;5.25;;
23720;SDS011;42950;52.134;5.578;2023-05-07T01:28:45;6.15;;;5.55;;
23720;SDS011;42950;52.134;5.578;2023-05-07T01:31:11;6.07;;;5.47;;
23720;SDS011;42950;52.134;5.578;2023-05-07T01:33:38;6.32;;;5.72;;
23720;SDS011;42950;52.134;5.578;2023-05-07T01:36:06;7.03;;;6.03;;
23720;SDS011;42950;52.134;5.578;2023-05-07T01:38:33;8.35;;;6.60;;
23720;SDS011;42950;52.134;5.578;2023-05-07T01:41:01;6.45;;;5.50;;
23720;SDS011;42950;52.134;5.578;2023-05-07T01:43:33;6.68;;;5.97;;
23720;SDS011;42950;52.134;5.578;2023-05-07T01:45:59;6.75;;;6.05;;
23720;SDS011;42950;52.134;5.578;2023-05-07T01:48:27;8.95;;;6.45;;
23720;SDS011;42950;52.134;5.578;2023-05-07T01:50:54;6.25;;;5.65;;
23720;SDS011;42950;52.134;5.578;2023-05-07T01:53:21;7.65;;;6.78;;
23720;SDS011;42950;52.134;5.578;2023-05-07T01:55:47;6.75;;;6.00;;
23720;SDS011;42950;52.134;5.578;2023-05-07T01:58:13;7.13;;;6.20;;
23720;SDS011;42950;52.134;5.578;2023-05-07T02:00:39;6.88;;;6.18;;
23720;SDS011;42950;52.134;5.578;2023-05-07T02:03:05;6.95;;;6.28;;
23720;SDS011;42950;52.134;5.578;2023-05-07T02:05:32;7.80;;;7.00;;
23720;SDS011;42950;52.134;5.578;2023-05-07T02:07:57;7.75;;;6.50;;
23720;SDS011;42950;52.134;5.578;2023-05-07T02:10:23;7.05;;;6.38;;
23720;SDS011;42950;52.134;5.578;2023-05-07T02:12:49;7.95;;;7.20;;
23720;SDS011;42950;52.134;5.578;2023-05-07T02:15:14;7.30;;;6.55;;
23720;SDS011;42950;52.134;5.578;2023-05-07T02:17:57;8.65;;;7.60;;
23720;SDS011;42950;52.134;5.578;2023-05-07T02:20:37;7.32;;;6.63;;
23720;SDS011;42950;52.134;5.578;2023-05-07T02:23:02;8.73;;;7.05;;
23720;SDS011;42950;52.134;5.578;2023-05-07T02:25:28;9.05;;;7.55;;
23720;SDS011;42950;52.134;5.578;2023-05-07T02:27:54;10.35;;;7.10;;
23720;SDS011;42950;52.134;5.578;2023-05-07T02:30:20;7.50;;;6.70;;
23720;SDS011;42950;52.134;5.578;2023-05-07T02:32:50;8.05;;;7.13;;
23720;SDS011;42950;52.134;5.578;2023-05-07T02:35:15;8.68;;;6.93;;
23720;SDS011;42950;52.134;5.578;2023-05-07T02:37:41;8.43;;;6.47;;
23720;SDS011;42950;52.134;5.578;2023-05-07T02:40:07;8.50;;;7.35;;
23720;SDS011;42950;52.134;5.578;2023-05-07T02:42:33;7.82;;;7.07;;
23720;SDS011;42950;52.134;5.578;2023-05-07T02:45:00;7.63;;;6.93;;
23720;SDS011;42950;52.134;5.578;2023-05-07T02:47:27;8.07;;;6.80;;
23720;SDS011;42950;52.134;5.578;2023-05-07T02:49:54;9.82;;;8.05;;
23720;SDS011;42950;52.134;5.578;2023-05-07T02:52:20;9.18;;;7.93;;
23720;SDS011;42950;52.134;5.578;2023-05-07T02:54:46;8.38;;;7.07;;
23720;SDS011;42950;52.134;5.578;2023-05-07T02:57:12;8.32;;;7.15;;
23720;SDS011;42950;52.134;5.578;2023-05-07T02:59:37;8.90;;;8.00;;
23720;SDS011;42950;52.134;5.578;2023-05-07T03:02:03;11.63;;;8.88;;
23720;SDS011;42950;52.134;5.578;2023-05-07T03:04:29;10.20;;;8.35;;
23720;SDS011;42950;52.134;5.578;2023-05-07T03:06:54;9.68;;;8.07;;
23720;SDS011;42950;52.134;5.578;2023-05-07T03:09:21;10.25;;;8.38;;
23720;SDS011;42950;52.134;5.578;2023-05-07T03:11:48;9.73;;;8.73;;
23720;SDS011;42950;52.134;5.578;2023-05-07T03:14:14;9.55;;;8.57;;
23720;SDS011;42950;52.134;5.578;2023-05-07T03:16:39;10.52;;;9.32;;
23720;SDS011;42950;52.134;5.578;2023-05-07T03:19:06;12.05;;;8.55;;
23720;SDS011;42950;52.134;5.578;2023-05-07T03:21:31;9.30;;;7.93;;
23720;SDS011;42950;52.134;5.578;2023-05-07T03:23:58;10.27;;;9.10;;
23720;SDS011;42950;52.134;5.578;2023-05-07T03:26:25;9.82;;;8.40;;
23720;SDS011;42950;52.134;5.578;2023-05-07T03:28:51;10.60;;;9.50;;
23720;SDS011;42950;52.134;5.578;2023-05-07T03:31:18;10.95;;;8.75;;
23720;SDS011;42950;52.134;5.578;2023-05-07T03:33:53;9.55;;;8.48;;
23720;SDS011;42950;52.134;5.578;2023-05-07T03:36:21;11.75;;;9.93;;
23720;SDS011;42950;52.134;5.578;2023-05-07T03:38:47;10.07;;;9.07;;
23720;SDS011;42950;52.134;5.578;2023-05-07T03:41:14;9.07;;;8.20;;
23720;SDS011;42950;52.134;5.578;2023-05-07T03:43:40;10.07;;;7.90;;
23720;SDS011;42950;52.134;5.578;2023-05-07T03:46:06;12.15;;;9.35;;
23720;SDS011;42950;52.134;5.578;2023-05-07T03:48:32;10.40;;;9.02;;
23720;SDS011;42950;52.134;5.578;2023-05-07T03:50:58;10.15;;;9.15;;
23720;SDS011;42950;52.134;5.578;2023-05-07T03:53:24;10.27;;;9.18;;
23720;SDS011;42950;52.134;5.578;2023-05-07T03:55:50;10.32;;;9.23;;
23720;SDS011;42950;52.134;5.578;2023-05-07T03:58:16;10.50;;;9.50;;
23720;SDS011;42950;52.134;5.578;2023-05-07T04:00:41;12.00;;;9.25;;
23720;SDS011;42950;52.134;5.578;2023-05-07T04:03:07;10.82;;;9.32;;
23720;SDS011;42950;52.134;5.578;2023-05-07T04:05:33;11.00;;;9.02;;
23720;SDS011;42950;52.134;5.578;2023-05-07T04:07:59;10.88;;;9.27;;
23720;SDS011;42950;52.134;5.578;2023-05-07T04:10:26;10.93;;;9.40;;
23720;SDS011;42950;52.134;5.578;2023-05-07T04:12:54;12.85;;;9.40;;
23720;SDS011;42950;52.134;5.578;2023-05-07T04:15:19;10.52;;;8.77;;
23720;SDS011;42950;52.134;5.578;2023-05-07T04:17:45;10.20;;;9.13;;
23720;SDS011;42950;52.134;5.578;2023-05-07T04:20:14;10.68;;;9.52;;
23720;SDS011;42950;52.134;5.578;2023-05-07T04:22:40;12.57;;;10.40;;
23720;SDS011;42950;52.134;5.578;2023-05-07T04:25:06;11.05;;;8.75;;
23720;SDS011;42950;52.134;5.578;2023-05-07T04:27:34;12.15;;;10.05;;
23720;SDS011;42950;52.134;5.578;2023-05-07T04:30:01;11.88;;;9.85;;
23720;SDS011;42950;52.134;5.578;2023-05-07T04:32:28;13.07;;;10.40;;
23720;SDS011;42950;52.134;5.578;2023-05-07T04:34:55;11.32;;;10.23;;
23720;SDS011;42950;52.134;5.578;2023-05-07T04:37:21;10.65;;;9.55;;
23720;SDS011;42950;52.134;5.578;2023-05-07T04:39:47;12.30;;;10.95;;
23720;SDS011;42950;52.134;5.578;2023-05-07T04:42:16;13.43;;;11.18;;
23720;SDS011;42950;52.134;5.578;2023-05-07T04:44:43;12.52;;;10.52;;
23720;SDS011;42950;52.134;5.578;2023-05-07T04:47:09;14.95;;;11.55;;
23720;SDS011;42950;52.134;5.578;2023-05-07T04:49:36;12.25;;;10.95;;
23720;SDS011;42950;52.134;5.578;2023-05-07T04:52:02;11.50;;;10.40;;
23720;SDS011;42950;52.134;5.578;2023-05-07T04:54:28;14.43;;;12.13;;
23720;SDS011;42950;52.134;5.578;2023-05-07T04:56:54;12.90;;;10.82;;
23720;SDS011;42950;52.134;5.578;2023-05-07T04:59:30;12.82;;;11.55;;
23720;SDS011;42950;52.134;5.578;2023-05-07T05:01:55;12.80;;;11.52;;
23720;SDS011;42950;52.134;5.578;2023-05-07T05:04:21;15.05;;;11.88;;
23720;SDS011;42950;52.134;5.578;2023-05-07T05:06:47;13.25;;;11.85;;
23720;SDS011;42950;52.134;5.578;2023-05-07T05:09:12;14.35;;;11.65;;
23720;SDS011;42950;52.134;5.578;2023-05-07T05:11:40;14.82;;;12.73;;
23720;SDS011;42950;52.134;5.578;2023-05-07T05:14:06;15.23;;;13.57;;
23720;SDS011;42950;52.134;5.578;2023-05-07T05:16:31;15.40;;;13.90;;
23720;SDS011;42950;52.134;5.578;2023-05-07T05:18:58;15.65;;;13.80;;
23720;SDS011;42950;52.134;5.578;2023-05-07T05:21:23;15.25;;;13.68;;
23720;SDS011;42950;52.134;5.578;2023-05-07T05:23:50;16.52;;;14.57;;
23720;SDS011;42950;52.134;5.578;2023-05-07T05:26:16;17.42;;;15.70;;
23720;SDS011;42950;52.134;5.578;2023-05-07T05:28:42;15.95;;;14.25;;
23720;SDS011;42950;52.134;5.578;2023-05-07T05:31:10;15.55;;;13.95;;
23720;SDS011;42950;52.134;5.578;2023-05-07T05:33:35;16.77;;;14.98;;
23720;SDS011;42950;52.134;5.578;2023-05-07T05:36:01;16.60;;;14.90;;
23720;SDS011;42950;52.134;5.578;2023-05-07T05:38:27;20.20;;;15.82;;
23720;SDS011;42950;52.134;5.578;2023-05-07T05:40:52;16.95;;;15.23;;
23720;SDS011;42950;52.134;5.578;2023-05-07T05:43:18;16.98;;;15.18;;
23720;SDS011;42950;52.134;5.578;2023-05-07T05:45:45;17.75;;;15.63;;
23720;SDS011;42950;52.134;5.578;2023-05-07T05:48:11;16.40;;;14.73;;
23720;SDS011;42950;52.134;5.578;2023-05-07T05:50:38;16.27;;;14.63;;
23720;SDS011;42950;52.134;5.578;2023-05-07T05:53:04;16.00;;;14.48;;
23720;SDS011;42950;52.134;5.578;2023-05-07T05:55:32;16.67;;;14.98;;
23720;SDS011;42950;52.134;5.578;2023-05-07T05:58:00;18.38;;;15.75;;
23720;SDS011;42950;52.134;5.578;2023-05-07T06:00:26;16.75;;;15.15;;
23720;SDS011;42950;52.134;5.578;2023-05-07T06:02:53;16.83;;;15.05;;
23720;SDS011;42950;52.134;5.578;2023-05-07T06:05:19;16.77;;;15.07;;
23720;SDS011;42950;52.134;5.578;2023-05-07T06:07:46;17.92;;;16.20;;
23720;SDS011;42950;52.134;5.578;2023-05-07T06:10:11;16.70;;;14.98;;
23720;SDS011;42950;52.134;5.578;2023-05-07T06:12:37;15.70;;;14.07;;
23720;SDS011;42950;52.134;5.578;2023-05-07T06:15:04;17.00;;;15.40;;
23720;SDS011;42950;52.134;5.578;2023-05-07T06:17:30;17.45;;;15.75;;
23720;SDS011;42950;52.134;5.578;2023-05-07T06:19:55;16.65;;;15.15;;
23720;SDS011;42950;52.134;5.578;2023-05-07T06:22:21;17.75;;;15.95;;
23720;SDS011;42950;52.134;5.578;2023-05-07T06:24:48;18.92;;;17.13;;
23720;SDS011;42950;52.134;5.578;2023-05-07T06:27:13;21.33;;;17.15;;
23720;SDS011;42950;52.134;5.578;2023-05-07T06:29:40;18.00;;;16.40;;
23720;SDS011;42950;52.134;5.578;2023-05-07T06:32:12;17.42;;;15.73;;
23720;SDS011;42950;52.134;5.578;2023-05-07T06:34:39;19.92;;;17.80;;
23720;SDS011;42950;52.134;5.578;2023-05-07T06:37:05;20.13;;;17.77;;
23720;SDS011;42950;52.134;5.578;2023-05-07T06:39:31;18.02;;;16.23;;
23720;SDS011;42950;52.134;5.578;2023-05-07T06:41:58;18.52;;;16.52;;
23720;SDS011;42950;52.134;5.578;2023-05-07T06:44:24;16.67;;;15.18;;
23720;SDS011;42950;52.134;5.578;2023-05-07T06:46:50;17.33;;;15.63;;
23720;SDS011;42950;52.134;5.578;2023-05-07T06:49:15;18.45;;;16.48;;
23720;SDS011;42950;52.134;5.578;2023-05-07T06:51:41;16.55;;;14.85;;
23720;SDS011;42950;52.134;5.578;2023-05-07T06:54:07;16.33;;;14.88;;
23720;SDS011;42950;52.134;5.578;2023-05-07T06:56:33;18.13;;;15.75;;
23720;SDS011;42950;52.134;5.578;2023-05-07T06:59:01;17.00;;;15.40;;
23720;SDS011;42950;52.134;5.578;2023-05-07T07:01:27;16.27;;;14.77;;
23720;SDS011;42950;52.134;5.578;2023-05-07T07:03:54;15.60;;;14.18;;
23720;SDS011;42950;52.134;5.578;2023-05-07T07:06:20;16.75;;;15.05;;
23720;SDS011;42950;52.134;5.578;2023-05-07T07:08:46;16.38;;;14.68;;
23720;SDS011;42950;52.134;5.578;2023-05-07T07:11:14;17.33;;;15.55;;
23720;SDS011;42950;52.134;5.578;2023-05-07T07:13:40;17.92;;;16.05;;
23720;SDS011;42950;52.134;5.578;2023-05-07T07:16:06;17.13;;;15.55;;
23720;SDS011;42950;52.134;5.578;2023-05-07T07:18:32;17.13;;;15.38;;
23720;SDS011;42950;52.134;5.578;2023-05-07T07:20:58;18.00;;;16.10;;
23720;SDS011;42950;52.134;5.578;2023-05-07T07:23:25;17.60;;;15.88;;
23720;SDS011;42950;52.134;5.578;2023-05-07T07:25:50;19.33;;;17.52;;
23720;SDS011;42950;52.134;5.578;2023-05-07T07:28:17;18.15;;;16.45;;
23720;SDS011;42950;52.134;5.578;2023-05-07T07:30:42;20.08;;;18.05;;
23720;SDS011;42950;52.134;5.578;2023-05-07T07:33:08;19.25;;;17.25;;
23720;SDS011;42950;52.134;5.578;2023-05-07T07:35:34;20.05;;;18.08;;
23720;SDS011;42950;52.134;5.578;2023-05-07T07:38:00;19.80;;;17.80;;
23720;SDS011;42950;52.134;5.578;2023-05-07T07:40:26;19.33;;;17.27;;
23720;SDS011;42950;52.134;5.578;2023-05-07T07:42:52;20.52;;;18.42;;
23720;SDS011;42950;52.134;5.578;2023-05-07T07:45:18;19.23;;;17.40;;
23720;SDS011;42950;52.134;5.578;2023-05-07T07:47:44;21.00;;;18.88;;
23720;SDS011;42950;52.134;5.578;2023-05-07T07:50:10;19.65;;;17.65;;
23720;SDS011;42950;52.134;5.578;2023-05-07T07:52:35;19.52;;;17.55;;
23720;SDS011;42950;52.134;5.578;2023-05-07T07:55:02;19.88;;;18.02;;
23720;SDS011;42950;52.134;5.578;2023-05-07T07:57:28;21.73;;;19.63;;
23720;SDS011;42950;52.134;5.578;2023-05-07T07:59:55;21.70;;;19.60;;
23720;SDS011;42950;52.134;5.578;2023-05-07T08:02:20;19.70;;;17.88;;
23720;SDS011;42950;52.134;5.578;2023-05-07T08:04:46;19.30;;;17.58;;
23720;SDS011;42950;52.134;5.578;2023-05-07T08:07:12;20.65;;;18.55;;
23720;SDS011;42950;52.134;5.578;2023-05-07T08:09:38;19.88;;;17.98;;
23720;SDS011;42950;52.134;5.578;2023-05-07T08:12:05;19.67;;;17.67;;
23720;SDS011;42950;52.134;5.578;2023-05-07T08:14:32;20.17;;;18.23;;
23720;SDS011;42950;52.134;5.578;2023-05-07T08:16:58;20.45;;;18.33;;
23720;SDS011;42950;52.134;5.578;2023-05-07T08:19:23;19.40;;;17.60;;
23720;SDS011;42950;52.134;5.578;2023-05-07T08:21:49;19.40;;;17.52;;
23720;SDS011;42950;52.134;5.578;2023-05-07T08:24:15;18.63;;;16.88;;
23720;SDS011;42950;52.134;5.578;2023-05-07T08:26:43;18.63;;;16.88;;
23720;SDS011;42950;52.134;5.578;2023-05-07T08:29:10;18.85;;;17.05;;
23720;SDS011;42950;52.134;5.578;2023-05-07T08:31:36;17.80;;;15.95;;
23720;SDS011;42950;52.134;5.578;2023-05-07T08:34:03;16.48;;;15.07;;
23720;SDS011;42950;52.134;5.578;2023-05-07T08:36:29;17.33;;;15.57;;
23720;SDS011;42950;52.134;5.578;2023-05-07T08:38:54;17.55;;;15.77;;
23720;SDS011;42950;52.134;5.578;2023-05-07T08:41:20;16.08;;;14.57;;
23720;SDS011;42950;52.134;5.578;2023-05-07T08:43:49;18.42;;;16.63;;
23720;SDS011;42950;52.134;5.578;2023-05-07T08:46:20;17.05;;;15.40;;
23720;SDS011;42950;52.134;5.578;2023-05-07T08:48:50;18.65;;;16.67;;
23720;SDS011;42950;52.134;5.578;2023-05-07T08:51:17;18.40;;;16.35;;
23720;SDS011;42950;52.134;5.578;2023-05-07T08:53:45;19.15;;;17.10;;
23720;SDS011;42950;52.134;5.578;2023-05-07T08:56:19;19.35;;;17.40;;
23720;SDS011;42950;52.134;5.578;2023-05-07T08:58:47;21.08;;;17.77;;
23720;SDS011;42950;52.134;5.578;2023-05-07T09:01:14;21.17;;;18.25;;
23720;SDS011;42950;52.134;5.578;2023-05-07T09:03:40;20.48;;;18.58;;
23720;SDS011;42950;52.134;5.578;2023-05-07T09:06:09;22.77;;;18.27;;
23720;SDS011;42950;52.134;5.578;2023-05-07T09:08:35;21.40;;;19.30;;
23720;SDS011;42950;52.134;5.578;2023-05-07T09:11:02;21.70;;;19.42;;
23720;SDS011;42950;52.134;5.578;2023-05-07T09:13:28;19.52;;;17.65;;
23720;SDS011;42950;52.134;5.578;2023-05-07T09:15:54;21.23;;;18.80;;
23720;SDS011;42950;52.134;5.578;2023-05-07T09:18:20;21.60;;;19.30;;
23720;SDS011;42950;52.134;5.578;2023-05-07T09:20:48;19.80;;;17.75;;
23720;SDS011;42950;52.134;5.578;2023-05-07T09:23:14;21.17;;;18.52;;
23720;SDS011;42950;52.134;5.578;2023-05-07T09:25:40;21.10;;;17.80;;
23720;SDS011;42950;52.134;5.578;2023-05-07T09:28:05;21.65;;;19.40;;
23720;SDS011;42950;52.134;5.578;2023-05-07T09:30:33;21.95;;;19.30;;
23720;SDS011;42950;52.134;5.578;2023-05-07T09:33:00;23.88;;;18.20;;
23720;SDS011;42950;52.134;5.578;2023-05-07T09:35:28;19.75;;;17.65;;
23720;SDS011;42950;52.134;5.578;2023-05-07T09:37:57;18.75;;;16.75;;
23720;SDS011;42950;52.134;5.578;2023-05-07T09:40:29;20.90;;;18.65;;
23720;SDS011;42950;52.134;5.578;2023-05-07T09:42:56;19.90;;;17.80;;
23720;SDS011;42950;52.134;5.578;2023-05-07T09:45:34;20.73;;;18.50;;
23720;SDS011;42950;52.134;5.578;2023-05-07T09:48:01;20.70;;;18.55;;
23720;SDS011;42950;52.134;5.578;2023-05-07T09:50:32;19.27;;;17.20;;
23720;SDS011;42950;52.134;5.578;2023-05-07T09:53:03;17.73;;;15.80;;
23720;SDS011;42950;52.134;5.578;2023-05-07T09:55:29;22.13;;;17.95;;
23720;SDS011;42950;52.134;5.578;2023-05-07T09:57:55;20.40;;;18.17;;
23720;SDS011;42950;52.134;5.578;2023-05-07T10:00:24;18.67;;;16.77;;
23720;SDS011;42950;52.134;5.578;2023-05-07T10:02:52;20.20;;;17.73;;
23720;SDS011;42950;52.134;5.578;2023-05-07T10:05:21;19.35;;;17.33;;
23720;SDS011;42950;52.134;5.578;2023-05-07T10:07:48;20.73;;;16.60;;
23720;SDS011;42950;52.134;5.578;2023-05-07T10:10:14;19.35;;;17.15;;
23720;SDS011;42950;52.134;5.578;2023-05-07T10:12:40;18.08;;;16.23;;
23720;SDS011;42950;52.134;5.578;2023-05-07T10:15:09;17.83;;;16.02;;
23720;SDS011;42950;52.134;5.578;2023-05-07T10:17:37;19.30;;;17.30;;
23720;SDS011;42950;52.134;5.578;2023-05-07T10:20:04;19.63;;;17.25;;
23720;SDS011;42950;52.134;5.578;2023-05-07T10:22:32;19.27;;;17.20;;
23720;SDS011;42950;52.134;5.578;2023-05-07T10:25:16;19.85;;;16.83;;
23720;SDS011;42950;52.134;5.578;2023-05-07T10:27:46;19.10;;;16.83;;
23720;SDS011;42950;52.134;5.578;2023-05-07T10:31:01;18.50;;;15.77;;
23720;SDS011;42950;52.134;5.578;2023-05-07T10:33:12;18.27;;;16.38;;
23720;SDS011;42950;52.134;5.578;2023-05-07T10:35:43;19.25;;;17.35;;
23720;SDS011;42950;52.134;5.578;2023-05-07T10:38:11;21.08;;;16.98;;
23720;SDS011;42950;52.134;5.578;2023-05-07T10:40:38;17.98;;;16.05;;
23720;SDS011;42950;52.134;5.578;2023-05-07T10:43:04;19.02;;;17.02;;
23720;SDS011;42950;52.134;5.578;2023-05-07T10:45:31;19.42;;;17.42;;
23720;SDS011;42950;52.134;5.578;2023-05-07T10:48:11;20.17;;;17.85;;
23720;SDS011;42950;52.134;5.578;2023-05-07T10:50:41;19.67;;;17.58;;
23720;SDS011;42950;52.134;5.578;2023-05-07T10:55:47;21.95;;;18.75;;
23720;SDS011;42950;52.134;5.578;2023-05-07T10:58:28;18.90;;;16.83;;
23720;SDS011;42950;52.134;5.578;2023-05-07T11:00:57;18.92;;;17.02;;
23720;SDS011;42950;52.134;5.578;2023-05-07T11:03:25;17.98;;;16.20;;
23720;SDS011;42950;52.134;5.578;2023-05-07T11:11:43;17.88;;;15.95;;
23720;SDS011;42950;52.134;5.578;2023-05-07T11:14:42;17.05;;;15.35;;
23720;SDS011;42950;52.134;5.578;2023-05-07T11:17:07;16.73;;;15.00;;
23720;SDS011;42950;52.134;5.578;2023-05-07T11:25:01;17.77;;;15.13;;
23720;SDS011;42950;52.134;5.578;2023-05-07T11:27:28;18.88;;;15.40;;
23720;SDS011;42950;52.134;5.578;2023-05-07T11:29:56;17.25;;;15.55;;
23720;SDS011;42950;52.134;5.578;2023-05-07T11:32:22;15.55;;;13.68;;
23720;SDS011;42950;52.134;5.578;2023-05-07T11:34:55;16.58;;;14.18;;
23720;SDS011;42950;52.134;5.578;2023-05-07T11:37:22;16.20;;;14.48;;
23720;SDS011;42950;52.134;5.578;2023-05-07T11:39:49;15.45;;;13.85;;
23720;SDS011;42950;52.134;5.578;2023-05-07T11:42:31;14.95;;;13.45;;
23720;SDS011;42950;52.134;5.578;2023-05-07T11:45:02;15.60;;;13.98;;
23720;SDS011;42950;52.134;5.578;2023-05-07T11:47:32;17.23;;;15.43;;
23720;SDS011;42950;52.134;5.578;2023-05-07T11:50:01;18.67;;;15.48;;
23720;SDS011;42950;52.134;5.578;2023-05-07T11:52:28;16.23;;;14.50;;
23720;SDS011;42950;52.134;5.578;2023-05-07T11:54:55;17.77;;;15.98;;
23720;SDS011;42950;52.134;5.578;2023-05-07T11:57:26;18.00;;;16.25;;
23720;SDS011;42950;52.134;5.578;2023-05-07T11:59:56;17.35;;;15.55;;
23720;SDS011;42950;52.134;5.578;2023-05-07T12:02:24;19.35;;;15.85;;
23720;SDS011;42950;52.134;5.578;2023-05-07T12:04:50;18.52;;;16.65;;
23720;SDS011;42950;52.134;5.578;2023-05-07T12:07:17;19.67;;;15.75;;
23720;SDS011;42950;52.134;5.578;2023-05-07T12:09:45;19.88;;;16.90;;
23720;SDS011;42950;52.134;5.578;2023-05-07T12:12:12;20.25;;;18.15;;
23720;SDS011;42950;52.134;5.578;2023-05-07T12:14:43;17.23;;;15.50;;
23720;SDS011;42950;52.134;5.578;2023-05-07T12:17:10;17.45;;;15.35;;
23720;SDS011;42950;52.134;5.578;2023-05-07T12:19:38;18.65;;;16.50;;
23720;SDS011;42950;52.134;5.578;2023-05-07T12:22:04;21.25;;;16.55;;
23720;SDS011;42950;52.134;5.578;2023-05-07T12:24:46;18.98;;;16.92;;
23720;SDS011;42950;52.134;5.578;2023-05-07T12:27:25;18.52;;;16.63;;
23720;SDS011;42950;52.134;5.578;2023-05-07T12:29:51;19.00;;;16.80;;
23720;SDS011;42950;52.134;5.578;2023-05-07T12:32:17;17.50;;;15.40;;
23720;SDS011;42950;52.134;5.578;2023-05-07T12:34:44;15.57;;;14.07;;
23720;SDS011;42950;52.134;5.578;2023-05-07T12:37:10;15.23;;;13.68;;
23720;SDS011;42950;52.134;5.578;2023-05-07T12:39:37;17.30;;;13.50;;
23720;SDS011;42950;52.134;5.578;2023-05-07T12:42:04;16.88;;;15.00;;
23720;SDS011;42950;52.134;5.578;2023-05-07T12:44:31;15.57;;;14.07;;
23720;SDS011;42950;52.134;5.578;2023-05-07T12:46:58;15.55;;;13.85;;
23720;SDS011;42950;52.134;5.578;2023-05-07T12:49:27;17.60;;;14.95;;
23720;SDS011;42950;52.134;5.578;2023-05-07T12:51:53;15.13;;;13.60;;
23720;SDS011;42950;52.134;5.578;2023-05-07T12:54:37;16.17;;;14.55;;
23720;SDS011;42950;52.134;5.578;2023-05-07T12:57:07;17.45;;;14.95;;
23720;SDS011;42950;52.134;5.578;2023-05-07T12:59:38;18.27;;;15.07;;
23720;SDS011;42950;52.134;5.578;2023-05-07T13:02:07;15.40;;;13.73;;
23720;SDS011;42950;52.134;5.578;2023-05-07T13:04:33;17.05;;;15.40;;
23720;SDS011;42950;52.134;5.578;2023-05-07T13:07:00;19.42;;;16.23;;
23720;SDS011;42950;52.134;5.578;2023-05-07T13:09:26;17.30;;;15.60;;
23720;SDS011;42950;52.134;5.578;2023-05-07T13:11:54;16.88;;;15.07;;
23720;SDS011;42950;52.134;5.578;2023-05-07T13:14:20;19.20;;;15.55;;
23720;SDS011;42950;52.134;5.578;2023-05-07T13:16:46;15.13;;;13.65;;
23720;SDS011;42950;52.134;5.578;2023-05-07T13:19:12;18.35;;;15.70;;
23720;SDS011;42950;52.134;5.578;2023-05-07T13:21:39;15.85;;;14.20;;
23720;SDS011;42950;52.134;5.578;2023-05-07T13:24:05;14.63;;;12.80;;
23720;SDS011;42950;52.134;5.578;2023-05-07T13:26:31;14.85;;;13.35;;
23720;SDS011;42950;52.134;5.578;2023-05-07T13:28:57;15.38;;;13.73;;
23720;SDS011;42950;52.134;5.578;2023-05-07T13:31:23;16.92;;;13.85;;
23720;SDS011;42950;52.134;5.578;2023-05-07T13:33:49;15.10;;;12.73;;
23720;SDS011;42950;52.134;5.578;2023-05-07T13:36:16;14.40;;;12.90;;
23720;SDS011;42950;52.134;5.578;2023-05-07T13:38:42;14.65;;;13.20;;
23720;SDS011;42950;52.134;5.578;2023-05-07T13:41:07;11.63;;;10.27;;
23720;SDS011;42950;52.134;5.578;2023-05-07T13:43:34;11.95;;;10.80;;
23720;SDS011;42950;52.134;5.578;2023-05-07T13:45:59;12.38;;;11.07;;
23720;SDS011;42950;52.134;5.578;2023-05-07T13:48:25;12.15;;;10.30;;
23720;SDS011;42950;52.134;5.578;2023-05-07T13:50:51;10.55;;;9.18;;
23720;SDS011;42950;52.134;5.578;2023-05-07T13:53:17;10.48;;;9.43;;
23720;SDS011;42950;52.134;5.578;2023-05-07T13:55:43;13.45;;;10.10;;
23720;SDS011;42950;52.134;5.578;2023-05-07T13:58:10;11.93;;;10.73;;
23720;SDS011;42950;52.134;5.578;2023-05-07T14:00:36;14.65;;;10.35;;
23720;SDS011;42950;52.134;5.578;2023-05-07T14:03:01;12.77;;;11.40;;
23720;SDS011;42950;52.134;5.578;2023-05-07T14:05:29;12.95;;;9.57;;
23720;SDS011;42950;52.134;5.578;2023-05-07T14:07:55;11.63;;;10.43;;
23720;SDS011;42950;52.134;5.578;2023-05-07T14:10:22;12.55;;;10.57;;
23720;SDS011;42950;52.134;5.578;2023-05-07T14:12:48;14.23;;;10.80;;
23720;SDS011;42950;52.134;5.578;2023-05-07T14:15:15;13.82;;;11.07;;
23720;SDS011;42950;52.134;5.578;2023-05-07T14:17:41;12.00;;;10.80;;
23720;SDS011;42950;52.134;5.578;2023-05-07T14:20:09;11.82;;;10.27;;
23720;SDS011;42950;52.134;5.578;2023-05-07T14:22:36;11.80;;;10.60;;
23720;SDS011;42950;52.134;5.578;2023-05-07T14:25:02;12.00;;;10.85;;
23720;SDS011;42950;52.134;5.578;2023-05-07T14:27:28;12.88;;;11.57;;
23720;SDS011;42950;52.134;5.578;2023-05-07T14:29:54;11.80;;;10.30;;
23720;SDS011;42950;52.134;5.578;2023-05-07T14:32:20;12.77;;;11.43;;
23720;SDS011;42950;52.134;5.578;2023-05-07T14:34:46;12.80;;;11.48;;
23720;SDS011;42950;52.134;5.578;2023-05-07T14:37:12;13.25;;;11.85;;
23720;SDS011;42950;52.134;5.578;2023-05-07T14:39:38;12.70;;;11.38;;
23720;SDS011;42950;52.134;5.578;2023-05-07T14:42:07;14.50;;;11.35;;
23720;SDS011;42950;52.134;5.578;2023-05-07T14:44:34;15.38;;;12.90;;